createdAt,value
2023-02-07T00:01:14.655Z,-6.71
2023-02-07T00:03:41.265Z,-6.73
2023-02-07T00:06:10.370Z,-6.77
2023-02-07T00:08:37.973Z,-6.65
2023-02-07T00:11:10.024Z,-6.64
2023-02-07T00:13:37.252Z,-6.66
2023-02-07T00:16:06.424Z,-6.76
2023-02-07T00:18:34.343Z,-6.89
2023-02-07T00:21:03.616Z,-6.83
2023-02-07T00:23:30.866Z,-6.78
2023-02-07T00:25:57.530Z,-6.69
2023-02-07T00:28:24.898Z,-6.78
2023-02-07T00:30:51.715Z,-6.78
2023-02-07T00:33:18.771Z,-6.80
2023-02-07T00:35:45.394Z,-6.87
2023-02-07T00:38:11.984Z,-6.92
2023-02-07T00:40:38.566Z,-6.77
2023-02-07T00:43:05.203Z,-6.92
2023-02-07T00:45:31.849Z,-6.95
2023-02-07T00:47:58.428Z,-6.88
2023-02-07T00:50:25.028Z,-6.82
2023-02-07T00:52:51.669Z,-6.89
2023-02-07T00:55:18.418Z,-6.91
2023-02-07T00:57:45.039Z,-6.96
2023-02-07T01:00:12.076Z,-7.08
2023-02-07T01:02:38.681Z,-7.21
2023-02-07T01:05:06.876Z,-7.21
2023-02-07T01:07:33.966Z,-7.14
2023-02-07T01:10:00.633Z,-7.17
2023-02-07T01:12:27.235Z,-7.16
2023-02-07T01:14:54.079Z,-7.09
2023-02-07T01:17:20.716Z,-7.22
2023-02-07T01:19:47.334Z,-7.31
2023-02-07T01:22:13.999Z,-7.32
2023-02-07T01:24:40.584Z,-7.38
2023-02-07T01:27:07.165Z,-7.31
2023-02-07T01:29:33.797Z,-7.30
2023-02-07T01:32:00.852Z,-7.26
2023-02-07T01:34:27.531Z,-7.24
2023-02-07T01:36:54.121Z,-7.23
2023-02-07T01:39:20.805Z,-7.28
2023-02-07T01:41:47.393Z,-7.27
2023-02-07T01:44:22.983Z,-7.31
2023-02-07T01:46:51.791Z,-7.39
2023-02-07T01:49:25.148Z,-7.38
2023-02-07T01:51:58.828Z,-7.36
2023-02-07T01:54:32.010Z,-7.42
2023-02-07T01:57:01.657Z,-7.43
2023-02-07T01:59:30.915Z,-7.38
2023-02-07T02:02:01.486Z,-7.34
2023-02-07T02:04:28.217Z,-7.35
2023-02-07T02:06:57.089Z,-7.46
2023-02-07T02:09:24.257Z,-7.43
2023-02-07T02:11:59.654Z,-7.38
2023-02-07T02:14:51.021Z,-7.36
2023-02-07T02:17:55.124Z,-7.35
2023-02-07T02:20:39.869Z,-7.35
2023-02-07T02:23:19.182Z,-7.48
2023-02-07T02:25:57.802Z,-7.50
2023-02-07T02:28:40.298Z,-7.69
2023-02-07T02:31:25.668Z,-7.60
2023-02-07T02:34:27.477Z,-7.56
2023-02-07T02:37:08.130Z,-7.56
2023-02-07T02:40:01.248Z,-7.58
2023-02-07T02:42:34.826Z,-7.60
2023-02-07T02:45:08.754Z,-7.61
2023-02-07T02:47:36.295Z,-7.69
2023-02-07T02:50:04.590Z,-7.85
2023-02-07T02:52:49.568Z,-7.76
2023-02-07T02:55:22.228Z,-7.84
2023-02-07T02:57:54.978Z,-7.74
2023-02-07T03:00:24.412Z,-7.76
2023-02-07T03:03:10.541Z,-7.72
2023-02-07T03:05:55.115Z,-7.80
2023-02-07T03:08:30.625Z,-7.79
2023-02-07T03:11:15.234Z,-7.68
2023-02-07T03:13:51.197Z,-7.71
2023-02-07T03:16:28.167Z,-7.76
2023-02-07T03:19:12.044Z,-7.85
2023-02-07T03:21:46.844Z,-7.90
2023-02-07T03:24:26.932Z,-7.94
2023-02-07T03:26:58.024Z,-7.91
2023-02-07T03:29:26.480Z,-7.99
2023-02-07T03:31:58.052Z,-7.98
2023-02-07T03:34:52.344Z,-8.05
2023-02-07T03:37:25.646Z,-7.99
2023-02-07T03:39:52.400Z,-7.90
2023-02-07T03:42:31.783Z,-7.88
2023-02-07T03:45:00.936Z,-7.89
2023-02-07T03:47:28.089Z,-7.77
2023-02-07T03:49:54.790Z,-7.83
2023-02-07T03:52:21.620Z,-7.77
2023-02-07T03:54:48.295Z,-7.72
2023-02-07T03:57:14.949Z,-7.75
2023-02-07T03:59:41.523Z,-7.65
2023-02-07T04:02:08.194Z,-7.65
2023-02-07T04:04:34.839Z,-7.64
2023-02-07T04:07:01.487Z,-7.50
2023-02-07T04:09:28.326Z,-7.67
2023-02-07T04:11:54.923Z,-7.72
2023-02-07T04:14:21.573Z,-7.84
2023-02-07T04:16:49.361Z,-7.78
2023-02-07T04:19:16.648Z,-7.72
2023-02-07T04:21:43.601Z,-7.70
2023-02-07T04:24:10.452Z,-7.69
2023-02-07T04:26:37.080Z,-7.75
2023-02-07T04:29:03.741Z,-7.84
2023-02-07T04:31:30.447Z,-7.97
2023-02-07T04:33:57.099Z,-7.90
2023-02-07T04:36:23.891Z,-7.90
2023-02-07T04:38:50.590Z,-7.92
2023-02-07T04:41:17.208Z,-7.86
2023-02-07T04:43:43.816Z,-7.90
2023-02-07T04:46:10.588Z,-7.90
2023-02-07T04:48:37.878Z,-8.03
2023-02-07T04:51:05.872Z,-7.96
2023-02-07T04:53:33.212Z,-7.96
2023-02-07T04:56:00.017Z,-7.91
2023-02-07T04:58:26.984Z,-7.96
2023-02-07T05:00:54.574Z,-7.89
2023-02-07T05:03:21.622Z,-7.94
2023-02-07T05:05:48.390Z,-8.07
2023-02-07T05:08:15.585Z,-8.07
2023-02-07T05:10:42.352Z,-8.07
2023-02-07T05:13:09.210Z,-8.11
2023-02-07T05:15:36.375Z,-8.14
2023-02-07T05:18:03.606Z,-8.10
2023-02-07T05:20:30.768Z,-8.07
2023-02-07T05:22:57.534Z,-8.11
2023-02-07T05:25:24.374Z,-8.18
2023-02-07T05:27:51.244Z,-8.13
2023-02-07T05:30:18.492Z,-8.02
2023-02-07T05:33:03.775Z,-7.98
2023-02-07T05:35:40.011Z,-8.02
2023-02-07T05:38:09.681Z,-7.97
2023-02-07T05:40:38.202Z,-7.91
2023-02-07T05:43:05.332Z,-7.85
2023-02-07T05:45:32.878Z,-7.93
2023-02-07T05:47:59.715Z,-7.89
2023-02-07T05:50:26.413Z,-8.04
2023-02-07T05:52:53.276Z,-8.05
2023-02-07T05:55:20.151Z,-8.16
2023-02-07T05:57:47.349Z,-8.02
2023-02-07T06:00:16.689Z,-8.03
2023-02-07T06:02:43.566Z,-8.00
2023-02-07T06:05:16.632Z,-7.90
2023-02-07T06:07:44.496Z,-7.95
2023-02-07T06:10:12.132Z,-8.01
2023-02-07T06:12:39.558Z,-8.08
2023-02-07T06:15:06.735Z,-7.98
2023-02-07T06:17:33.718Z,-8.01
2023-02-07T06:20:00.790Z,-7.96
2023-02-07T06:22:27.682Z,-7.85
2023-02-07T06:24:54.380Z,-7.87
2023-02-07T06:27:21.234Z,-7.79
2023-02-07T06:29:47.813Z,-7.97
2023-02-07T06:32:14.508Z,-7.73
2023-02-07T06:34:41.135Z,-7.71
2023-02-07T06:37:07.771Z,-7.87
2023-02-07T06:39:34.414Z,-7.95
2023-02-07T06:42:01.102Z,-7.78
2023-02-07T06:44:27.723Z,-7.83
2023-02-07T06:46:55.041Z,-7.84
2023-02-07T06:49:21.667Z,-7.78
2023-02-07T06:51:48.425Z,-8.01
2023-02-07T06:54:15.313Z,-7.86
2023-02-07T06:56:42.159Z,-7.90
2023-02-07T06:59:08.941Z,-7.88
2023-02-07T07:01:35.627Z,-7.86
2023-02-07T07:04:02.720Z,-7.88
2023-02-07T07:06:29.545Z,-7.77
2023-02-07T07:08:57.247Z,-7.66
2023-02-07T07:11:24.769Z,-7.67
2023-02-07T07:13:51.598Z,-7.70
2023-02-07T07:16:18.805Z,-7.69
2023-02-07T07:18:45.701Z,-7.69
2023-02-07T07:21:12.777Z,-7.54
2023-02-07T07:23:39.497Z,-7.48
2023-02-07T07:26:06.465Z,-7.40
2023-02-07T07:28:33.277Z,-7.48
2023-02-07T07:31:08.326Z,-7.61
2023-02-07T07:33:35.726Z,-7.47
2023-02-07T07:36:03.233Z,-7.26
2023-02-07T07:38:30.415Z,-7.27
2023-02-07T07:40:57.447Z,-7.00
2023-02-07T07:43:24.389Z,-6.85
2023-02-07T07:45:55.975Z,-6.75
2023-02-07T07:48:24.803Z,-6.49
2023-02-07T07:50:52.387Z,-6.41
2023-02-07T07:53:20.623Z,-6.32
2023-02-07T07:55:55.201Z,-6.08
2023-02-07T07:58:24.017Z,-5.86
2023-02-07T08:00:51.440Z,-5.61
2023-02-07T08:03:19.588Z,-5.53
2023-02-07T08:05:47.727Z,-5.30
2023-02-07T08:08:15.987Z,-4.91
2023-02-07T08:10:43.363Z,-4.98
2023-02-07T08:13:10.110Z,-4.91
2023-02-07T08:15:36.748Z,-4.68
2023-02-07T08:18:03.593Z,-4.53
2023-02-07T08:20:30.163Z,-4.32
2023-02-07T08:22:58.184Z,-4.90
2023-02-07T08:25:25.525Z,-4.62
2023-02-07T08:27:52.669Z,-4.85
2023-02-07T08:30:19.598Z,-4.72
2023-02-07T08:32:46.912Z,-4.36
2023-02-07T08:35:13.719Z,-4.27
2023-02-07T08:37:40.545Z,-3.98
2023-02-07T08:40:07.814Z,-4.02
2023-02-07T08:42:34.454Z,-3.90
2023-02-07T08:45:01.128Z,-3.88
2023-02-07T08:47:27.801Z,-3.40
2023-02-07T08:49:54.383Z,-3.42
2023-02-07T08:52:20.967Z,-3.52
2023-02-07T08:54:47.643Z,-3.63
2023-02-07T08:57:14.276Z,-2.99
2023-02-07T08:59:40.948Z,-2.98
2023-02-07T09:02:07.839Z,-2.61
2023-02-07T09:04:36.487Z,-2.55
2023-02-07T09:07:03.100Z,-2.20
2023-02-07T09:09:29.697Z,-1.91
2023-02-07T09:11:56.314Z,-2.22
2023-02-07T09:14:22.887Z,-2.15
2023-02-07T09:16:49.633Z,-2.03
2023-02-07T09:19:16.303Z,-1.53
2023-02-07T09:21:42.908Z,-1.84
2023-02-07T09:24:09.503Z,-2.07
2023-02-07T09:26:36.551Z,-1.58
2023-02-07T09:29:03.304Z,-1.35
2023-02-07T09:31:31.801Z,-1.05
2023-02-07T09:34:00.163Z,-0.50
2023-02-07T09:36:29.247Z,-0.36
2023-02-07T09:38:56.730Z,-0.38
2023-02-07T09:42:16.507Z,-0.04
2023-02-07T09:44:48.864Z,0.01
2023-02-07T09:47:25.517Z,-0.39
2023-02-07T09:49:57.889Z,0.16
2023-02-07T09:52:28.216Z,0.21
2023-02-07T09:54:56.893Z,-0.49
2023-02-07T09:57:37.539Z,0.17
2023-02-07T10:00:18.499Z,0.12
2023-02-07T10:03:06.975Z,0.64
2023-02-07T10:05:41.979Z,0.06
2023-02-07T10:08:15.482Z,0.30
2023-02-07T10:10:47.132Z,0.53
2023-02-07T10:13:19.744Z,0.18
2023-02-07T10:15:55.362Z,0.36
2023-02-07T10:18:36.878Z,0.21
2023-02-07T10:21:39.343Z,0.50
2023-02-07T10:24:18.254Z,0.31
2023-02-07T10:27:21.705Z,0.34
2023-02-07T10:29:56.688Z,0.74
2023-02-07T10:32:34.172Z,1.12
2023-02-07T10:35:14.736Z,1.26
2023-02-07T10:37:44.757Z,0.56
2023-02-07T10:40:29.293Z,1.19
2023-02-07T10:43:05.644Z,0.85
2023-02-07T10:45:32.600Z,1.38
2023-02-07T10:47:59.396Z,1.38
2023-02-07T10:50:30.859Z,1.65
2023-02-07T10:53:00.436Z,1.41
2023-02-07T10:55:46.480Z,1.82
2023-02-07T10:58:23.752Z,2.14
2023-02-07T11:00:54.576Z,1.87
2023-02-07T11:03:23.795Z,2.01
2023-02-07T11:05:59.864Z,1.77
2023-02-07T11:08:34.062Z,1.59
2023-02-07T11:11:25.941Z,1.96
2023-02-07T11:13:56.090Z,2.06
2023-02-07T11:16:25.596Z,2.32
2023-02-07T11:19:05.978Z,2.23
2023-02-07T11:21:41.854Z,2.05
2023-02-07T11:24:19.287Z,2.02
2023-02-07T11:27:07.464Z,1.97
2023-02-07T11:32:17.244Z,1.98
2023-02-07T11:35:14.038Z,1.71
2023-02-07T11:37:49.835Z,2.12
2023-02-07T11:40:23.933Z,1.69
2023-02-07T11:43:06.276Z,2.59
2023-02-07T11:45:48.039Z,2.89
2023-02-07T11:48:34.960Z,2.72
2023-02-07T11:51:05.703Z,2.83
2023-02-07T11:54:06.289Z,2.87
2023-02-07T11:56:40.003Z,2.98
2023-02-07T11:59:17.403Z,3.23
2023-02-07T12:01:50.333Z,3.03
2023-02-07T12:04:21.624Z,3.38
2023-02-07T12:07:13.254Z,2.94
2023-02-07T12:09:49.275Z,2.85
2023-02-07T12:12:34.407Z,2.52
2023-02-07T12:15:07.781Z,2.63
2023-02-07T12:17:50.908Z,2.88
2023-02-07T12:20:23.638Z,3.08
2023-02-07T12:23:21.713Z,3.27
2023-02-07T12:25:55.897Z,3.38
2023-02-07T12:28:40.169Z,2.77
2023-02-07T12:31:19.864Z,3.35
2023-02-07T12:34:15.713Z,3.33
2023-02-07T12:36:50.148Z,3.40
2023-02-07T12:39:22.490Z,2.93
2023-02-07T12:41:56.348Z,2.68
2023-02-07T12:44:35.976Z,3.06
2023-02-07T12:47:36.570Z,3.20
2023-02-07T12:50:39.336Z,3.49
2023-02-07T12:53:34.410Z,3.07
2023-02-07T12:56:20.296Z,3.19
2023-02-07T12:59:09.387Z,3.04
2023-02-07T13:01:46.530Z,2.88
2023-02-07T13:04:43.236Z,3.15
2023-02-07T13:07:19.676Z,3.28
2023-02-07T13:10:04.681Z,3.49
2023-02-07T13:12:51.356Z,3.25
2023-02-07T13:15:39.989Z,3.10
2023-02-07T13:18:36.071Z,2.61
2023-02-07T13:21:27.950Z,2.45
2023-02-07T13:24:01.258Z,2.62
2023-02-07T13:26:29.024Z,1.78
2023-02-07T13:29:07.170Z,1.99
2023-02-07T13:31:40.340Z,1.90
2023-02-07T13:34:15.527Z,2.30
2023-02-07T13:36:45.133Z,2.40
2023-02-07T13:39:19.000Z,2.73
2023-02-07T13:41:46.782Z,2.71
2023-02-07T13:44:32.151Z,2.69
2023-02-07T13:47:23.860Z,2.79
2023-02-07T13:50:16.497Z,2.62
2023-02-07T13:52:47.692Z,2.42
2023-02-07T13:55:38.170Z,2.01
2023-02-07T13:58:44.570Z,2.26
2023-02-07T14:01:23.469Z,2.22
2023-02-07T14:04:06.808Z,2.25
2023-02-07T14:06:38.031Z,2.56
2023-02-07T14:09:38.901Z,2.26
2023-02-07T14:12:15.570Z,2.33
2023-02-07T14:14:51.041Z,2.00
2023-02-07T14:17:29.712Z,2.12
2023-02-07T14:20:01.832Z,2.10
2023-02-07T14:22:41.178Z,2.11
2023-02-07T14:25:07.782Z,1.81
2023-02-07T14:27:38.725Z,1.68
2023-02-07T14:30:37.162Z,1.89
2023-02-07T14:33:35.249Z,1.51
2023-02-07T14:36:13.995Z,1.52
2023-02-07T14:39:02.024Z,1.49
2023-02-07T14:41:34.118Z,1.35
2023-02-07T14:44:09.654Z,1.20
2023-02-07T14:46:39.343Z,1.19
2023-02-07T14:49:13.880Z,0.92
2023-02-07T14:51:48.344Z,0.90
2023-02-07T14:54:39.109Z,0.90
2023-02-07T14:57:24.053Z,0.88
2023-02-07T15:00:05.877Z,0.77
2023-02-07T15:02:41.359Z,0.60
2023-02-07T15:05:13.813Z,0.47
2023-02-07T15:07:40.752Z,0.50
2023-02-07T15:10:22.898Z,0.41
2023-02-07T15:12:52.870Z,0.38
2023-02-07T15:15:24.401Z,0.31
2023-02-07T15:17:54.040Z,0.25
2023-02-07T15:20:32.994Z,0.14
2023-02-07T15:23:02.145Z,0.05
2023-02-07T15:25:30.915Z,-0.03
2023-02-07T15:28:27.665Z,-0.16
2023-02-07T15:31:03.974Z,-0.26
2023-02-07T15:33:48.858Z,-0.36
2023-02-07T15:36:35.807Z,-0.43
2023-02-07T15:39:08.370Z,-0.59
2023-02-07T15:41:35.206Z,-0.69
2023-02-07T15:44:04.449Z,-0.77
2023-02-07T15:47:07.211Z,-0.88
2023-02-07T15:49:42.121Z,-1.03
2023-02-07T15:52:40.397Z,-1.08
2023-02-07T15:55:20.599Z,-1.20
2023-02-07T15:57:47.351Z,-1.32
2023-02-07T16:00:21.301Z,-1.38
2023-02-07T16:03:22.036Z,-1.44
2023-02-07T16:05:49.440Z,-1.55
2023-02-07T16:08:40.200Z,-1.62
2023-02-07T16:11:30.393Z,-1.67
2023-02-07T16:13:59.744Z,-1.80
2023-02-07T16:16:32.710Z,-1.92
2023-02-07T16:19:15.900Z,-2.04
2023-02-07T16:21:51.031Z,-2.08
2023-02-07T16:24:24.290Z,-2.14
2023-02-07T16:26:51.325Z,-2.17
2023-02-07T16:29:23.711Z,-2.27
2023-02-07T16:31:51.221Z,-2.28
2023-02-07T16:34:19.711Z,-2.32
2023-02-07T16:36:54.704Z,-2.32
2023-02-07T16:39:21.722Z,-2.32
2023-02-07T16:41:51.543Z,-2.34
2023-02-07T16:44:22.752Z,-2.42
2023-02-07T16:46:49.441Z,-2.54
2023-02-07T16:49:18.303Z,-2.57
2023-02-07T16:51:44.920Z,-2.59
2023-02-07T16:54:12.092Z,-2.58
2023-02-07T16:56:39.572Z,-2.65
2023-02-07T16:59:08.128Z,-2.72
2023-02-07T17:01:34.773Z,-2.76
2023-02-07T17:04:01.352Z,-2.81
2023-02-07T17:06:29.740Z,-2.81
2023-02-07T17:08:56.542Z,-2.77
2023-02-07T17:11:25.345Z,-2.73
2023-02-07T17:13:59.085Z,-2.82
2023-02-07T17:16:27.443Z,-2.91
2023-02-07T17:18:54.173Z,-2.92
2023-02-07T17:21:22.548Z,-2.90
2023-02-07T17:23:49.607Z,-2.86
2023-02-07T17:26:27.511Z,-2.86
2023-02-07T17:28:55.171Z,-2.91
2023-02-07T17:31:22.064Z,-2.96
2023-02-07T17:33:49.236Z,-2.92
2023-02-07T17:36:17.022Z,-2.84
2023-02-07T17:38:44.376Z,-2.76
2023-02-07T17:41:12.150Z,-2.59
2023-02-07T17:43:41.207Z,-2.55
2023-02-07T17:46:22.969Z,-2.63
2023-02-07T17:48:51.337Z,-2.67
2023-02-07T17:51:23.919Z,-2.59
2023-02-07T17:53:51.061Z,-2.56
2023-02-07T17:56:21.234Z,-2.62
2023-02-07T17:58:48.051Z,-2.62
2023-02-07T18:01:19.139Z,-2.60
2023-02-07T18:03:48.449Z,-2.54
2023-02-07T18:06:17.190Z,-2.53
2023-02-07T18:08:44.507Z,-2.61
2023-02-07T18:11:14.326Z,-2.65
2023-02-07T18:13:42.726Z,-2.61
2023-02-07T18:16:13.058Z,-2.59
2023-02-07T18:18:40.095Z,-2.61
2023-02-07T18:21:06.769Z,-2.58
2023-02-07T18:23:33.348Z,-2.63
2023-02-07T18:26:01.124Z,-2.67
2023-02-07T18:28:27.830Z,-2.76
2023-02-07T18:30:54.466Z,-2.81
2023-02-07T18:33:21.132Z,-2.79
2023-02-07T18:35:51.341Z,-2.80
2023-02-07T18:38:18.090Z,-2.82
2023-02-07T18:40:44.699Z,-2.87
2023-02-07T18:43:11.348Z,-2.89
2023-02-07T18:45:42.143Z,-2.98
2023-02-07T18:48:09.406Z,-3.09
2023-02-07T18:50:36.182Z,-3.18
2023-02-07T18:53:02.755Z,-3.14
2023-02-07T18:55:29.363Z,-3.20
2023-02-07T18:57:57.481Z,-3.19
2023-02-07T19:00:24.144Z,-3.30
2023-02-07T19:02:50.770Z,-3.31
2023-02-07T19:05:17.574Z,-3.39
2023-02-07T19:07:44.187Z,-3.48
2023-02-07T19:10:12.285Z,-3.50
2023-02-07T19:12:39.606Z,-3.49
2023-02-07T19:15:06.897Z,-3.55
2023-02-07T19:17:33.519Z,-3.52
2023-02-07T19:20:00.130Z,-3.54
2023-02-07T19:22:35.465Z,-3.63
2023-02-07T19:25:04.017Z,-3.57
2023-02-07T19:27:30.642Z,-3.53
2023-02-07T19:29:57.213Z,-3.63
2023-02-07T19:32:23.794Z,-3.60
2023-02-07T19:34:50.421Z,-3.70
2023-02-07T19:37:17.137Z,-3.68
2023-02-07T19:39:46.168Z,-3.71
2023-02-07T19:42:12.857Z,-3.79
2023-02-07T19:44:39.436Z,-3.82
2023-02-07T19:47:06.071Z,-3.90
2023-02-07T19:49:32.798Z,-3.86
2023-02-07T19:51:59.390Z,-3.80
2023-02-07T19:54:25.974Z,-3.90
2023-02-07T19:56:52.660Z,-3.89
2023-02-07T19:59:19.257Z,-3.95
2023-02-07T20:01:45.923Z,-3.91
2023-02-07T20:04:12.589Z,-3.95
2023-02-07T20:06:39.268Z,-3.99
2023-02-07T20:09:07.212Z,-3.98
2023-02-07T20:11:34.367Z,-4.01
2023-02-07T20:14:05.977Z,-4.03
2023-02-07T20:16:35.402Z,-4.10
2023-02-07T20:19:05.389Z,-4.15
2023-02-07T20:21:33.608Z,-4.14
2023-02-07T20:24:00.615Z,-4.08
2023-02-07T20:26:32.946Z,-4.11
2023-02-07T20:29:01.504Z,-4.23
2023-02-07T20:31:29.385Z,-4.32
2023-02-07T20:33:57.598Z,-4.26
2023-02-07T20:36:25.812Z,-4.22
2023-02-07T20:38:52.531Z,-4.21
2023-02-07T20:41:31.455Z,-4.32
2023-02-07T20:44:05.560Z,-4.39
2023-02-07T20:46:34.994Z,-4.33
2023-02-07T20:49:05.429Z,-4.32
2023-02-07T20:51:32.495Z,-4.31
2023-02-07T20:54:01.174Z,-4.36
2023-02-07T20:56:28.512Z,-4.48
2023-02-07T20:58:55.854Z,-4.50
2023-02-07T21:01:25.233Z,-4.55
2023-02-07T21:03:53.858Z,-4.56
2023-02-07T21:06:22.932Z,-4.58
2023-02-07T21:08:53.324Z,-4.54
2023-02-07T21:11:20.274Z,-4.52
2023-02-07T21:13:51.128Z,-4.50
2023-02-07T21:16:20.843Z,-4.47
2023-02-07T21:18:48.065Z,-4.49
2023-02-07T21:21:15.303Z,-4.55
2023-02-07T21:23:42.511Z,-4.66
2023-02-07T21:26:11.670Z,-4.67
2023-02-07T21:28:38.531Z,-4.73
2023-02-07T21:31:07.813Z,-4.70
2023-02-07T21:33:34.508Z,-4.68
2023-02-07T21:36:11.906Z,-4.70
2023-02-07T21:38:40.134Z,-4.70
2023-02-07T21:41:11.099Z,-4.74
2023-02-07T21:43:40.335Z,-4.80
2023-02-07T21:46:28.593Z,-4.82
2023-02-07T21:49:14.250Z,-4.89
2023-02-07T21:51:42.017Z,-4.88
2023-02-07T21:54:08.864Z,-4.82
2023-02-07T21:56:38.294Z,-4.78
2023-02-07T21:59:11.534Z,-4.78
2023-02-07T22:01:38.567Z,-4.94
2023-02-07T22:04:07.006Z,-4.97
2023-02-07T22:06:37.911Z,-4.87
2023-02-07T22:09:05.501Z,-4.89
2023-02-07T22:11:34.247Z,-4.93
2023-02-07T22:14:01.911Z,-4.96
2023-02-07T22:16:29.798Z,-5.07
2023-02-07T22:18:58.029Z,-5.08
2023-02-07T22:21:29.762Z,-5.09
2023-02-07T22:23:57.977Z,-5.07
2023-02-07T22:26:26.017Z,-5.14
2023-02-07T22:28:52.761Z,-5.15
2023-02-07T22:31:25.225Z,-5.15
2023-02-07T22:33:54.287Z,-5.12
2023-02-07T22:36:24.144Z,-5.13
2023-02-07T22:38:51.475Z,-5.19
2023-02-07T22:41:18.486Z,-5.30
2023-02-07T22:43:45.409Z,-5.35
2023-02-07T22:46:18.691Z,-5.39
2023-02-07T22:48:46.006Z,-5.40
2023-02-07T22:51:23.480Z,-5.44
2023-02-07T22:53:53.368Z,-5.41
2023-02-07T22:56:20.414Z,-5.38
2023-02-07T22:58:47.040Z,-5.45
2023-02-07T23:01:21.491Z,-5.39
2023-02-07T23:03:48.972Z,-5.40
2023-02-07T23:06:16.714Z,-5.37
2023-02-07T23:08:43.391Z,-5.40
2023-02-07T23:11:12.861Z,-5.48
2023-02-07T23:13:40.920Z,-5.50
2023-02-07T23:16:12.727Z,-5.44
2023-02-07T23:18:39.786Z,-5.42
2023-02-07T23:21:15.326Z,-5.39
2023-02-07T23:23:42.467Z,-5.48
2023-02-07T23:26:11.590Z,-5.61
2023-02-07T23:28:38.959Z,-5.65
2023-02-07T23:31:07.844Z,-5.58
2023-02-07T23:33:35.306Z,-5.50
2023-02-07T23:36:02.444Z,-5.52
2023-02-07T23:38:29.014Z,-5.59
2023-02-07T23:40:56.788Z,-5.70
2023-02-07T23:43:24.250Z,-5.68
2023-02-07T23:45:50.943Z,-5.59
2023-02-07T23:48:17.589Z,-5.66
2023-02-07T23:50:44.211Z,-5.71
2023-02-07T23:53:10.805Z,-5.67
2023-02-07T23:55:41.986Z,-5.69
2023-02-07T23:58:08.604Z,-5.65
